createdAt,value
2022-11-23T00:01:28.058Z,99610.00
2022-11-23T00:03:57.248Z,99617.06
2022-11-23T00:06:25.255Z,99613.25
2022-11-23T00:08:52.500Z,99615.78
2022-11-23T00:11:20.159Z,99612.41
2022-11-23T00:13:47.589Z,99607.34
2022-11-23T00:16:19.783Z,99611.03
2022-11-23T00:18:46.502Z,99610.88
2022-11-23T00:21:15.919Z,99612.22
2022-11-23T00:23:43.709Z,99617.00
2022-11-23T00:26:11.150Z,99621.00
2022-11-23T00:28:37.567Z,99627.78
2022-11-23T00:31:04.792Z,99639.91
2022-11-23T00:33:31.120Z,99629.47
2022-11-23T00:36:16.766Z,99633.03
2022-11-23T00:38:44.572Z,99630.69
2022-11-23T00:41:17.164Z,99634.38
2022-11-23T00:43:44.326Z,99642.28
2022-11-23T00:46:20.591Z,99643.63
2022-11-23T00:48:48.642Z,99648.00
2022-11-23T00:51:18.253Z,99647.03
2022-11-23T00:53:44.957Z,99648.00
2022-11-23T00:56:11.893Z,99641.25
2022-11-23T00:58:38.568Z,99653.41
2022-11-23T01:01:13.390Z,99660.78
2022-11-23T01:03:45.188Z,99655.75
2022-11-23T01:06:23.525Z,99667.56
2022-11-23T01:08:52.209Z,99665.88
2022-11-23T01:11:22.672Z,99665.53
2022-11-23T01:13:49.063Z,99673.28
2022-11-23T01:16:24.164Z,99673.50
2022-11-23T01:19:03.023Z,99683.78
2022-11-23T01:21:31.653Z,99678.72
2022-11-23T02:41:18.481Z,99707.06
2022-11-23T02:43:45.020Z,99713.50
2022-11-23T02:46:11.418Z,99717.88
2022-11-23T02:48:37.725Z,99722.63
2022-11-23T02:51:04.083Z,99713.34
2022-11-23T02:53:31.630Z,99708.84
2022-11-23T02:55:59.124Z,99702.75
2022-11-23T02:58:25.456Z,99712.66
2022-11-23T03:00:51.927Z,99721.44
2022-11-23T03:03:18.350Z,99722.09
2022-11-23T03:05:45.002Z,99711.91
2022-11-23T03:08:11.331Z,99718.16
2022-11-23T03:10:37.619Z,99729.00
2022-11-23T03:13:06.365Z,99730.31
2022-11-23T03:15:32.725Z,99722.91
2022-11-23T03:17:59.150Z,99725.91
2022-11-23T03:20:25.514Z,99724.28
2022-11-23T03:22:51.860Z,99717.84
2022-11-23T03:25:20.885Z,99721.22
2022-11-23T03:27:47.309Z,99722.63
2022-11-23T03:30:14.349Z,99734.38
2022-11-23T03:32:42.745Z,99727.31
2022-11-23T03:35:09.284Z,99714.38
2022-11-23T03:37:35.688Z,99736.09
2022-11-23T03:40:02.037Z,99734.38
2022-11-23T03:42:28.433Z,99733.97
2022-11-23T03:44:54.782Z,99725.38
2022-11-23T03:47:21.212Z,99732.88
2022-11-23T03:49:47.792Z,99736.00
2022-11-23T03:52:14.189Z,99733.63
2022-11-23T03:54:40.699Z,99730.16
2022-11-23T03:57:07.227Z,99731.69
2022-11-23T03:59:33.978Z,99738.25
2022-11-23T04:02:00.491Z,99728.78
2022-11-23T04:04:26.984Z,99730.44
2022-11-23T04:06:53.267Z,99734.69
2022-11-23T04:09:19.730Z,99723.22
2022-11-23T04:11:46.069Z,99724.25
2022-11-23T04:14:12.401Z,99733.69
2022-11-23T04:16:38.856Z,99734.63
2022-11-23T04:19:06.414Z,99703.66
2022-11-23T04:21:32.736Z,99725.97
2022-11-23T04:23:59.304Z,99710.78
2022-11-23T04:26:26.065Z,99729.06
2022-11-23T04:28:52.690Z,99725.25
2022-11-23T04:31:19.168Z,99713.31
2022-11-23T04:33:45.647Z,99719.84
2022-11-23T04:36:12.132Z,99715.47
2022-11-23T04:38:38.530Z,99729.47
2022-11-23T04:41:05.040Z,99712.34
2022-11-23T04:43:44.495Z,99712.00
2022-11-23T04:46:13.583Z,99710.09
2022-11-23T04:48:39.957Z,99728.88
2022-11-23T04:51:06.740Z,99725.81
2022-11-23T04:53:33.364Z,99731.84
2022-11-23T04:55:59.932Z,99720.53
2022-11-23T04:58:27.882Z,99729.31
2022-11-23T05:00:57.928Z,99721.03
2022-11-23T05:03:24.639Z,99723.19
2022-11-23T05:05:51.116Z,99728.34
2022-11-23T05:08:17.419Z,99725.88
2022-11-23T05:10:44.170Z,99736.63
2022-11-23T05:13:10.566Z,99710.88
2022-11-23T05:15:37.027Z,99709.97
2022-11-23T05:18:05.593Z,99721.66
2022-11-23T05:20:32.455Z,99720.63
2022-11-23T05:22:59.320Z,99716.94
2022-11-23T05:25:26.766Z,99728.13
2022-11-23T05:27:53.380Z,99728.41
2022-11-23T05:30:19.979Z,99724.09
2022-11-23T05:32:46.406Z,99734.25
2022-11-23T05:35:15.083Z,99721.41
2022-11-23T05:37:42.990Z,99731.25
2022-11-23T05:40:10.268Z,99715.78
2022-11-23T05:42:38.193Z,99734.16
2022-11-23T05:45:10.016Z,99737.41
2022-11-23T05:47:37.856Z,99740.63
2022-11-23T05:50:04.953Z,99745.94
2022-11-23T05:52:31.519Z,99749.56
2022-11-23T05:54:58.355Z,99721.78
2022-11-23T05:57:24.804Z,99738.47
2022-11-23T05:59:51.260Z,99741.31
2022-11-23T06:02:17.906Z,99741.31
2022-11-23T06:04:44.503Z,99744.75
2022-11-23T06:07:10.878Z,99754.66
2022-11-23T06:09:37.485Z,99742.94
2022-11-23T06:12:04.318Z,99749.28
2022-11-23T06:14:30.788Z,99748.38
2022-11-23T06:16:58.008Z,99739.19
2022-11-23T06:19:25.671Z,99746.72
2022-11-23T06:21:52.749Z,99733.84
2022-11-23T06:24:19.244Z,99749.84
2022-11-23T06:26:45.811Z,99751.03
2022-11-23T06:29:12.563Z,99749.31
2022-11-23T06:31:42.079Z,99741.88
2022-11-23T06:34:09.315Z,99749.94
2022-11-23T06:36:39.143Z,99756.88
2022-11-23T06:39:06.281Z,99761.09
2022-11-23T06:41:34.999Z,99756.47
2022-11-23T06:44:03.963Z,99752.50
2022-11-23T06:46:35.858Z,99749.03
2022-11-23T06:49:05.597Z,99740.72
2022-11-23T06:51:34.400Z,99755.28
2022-11-23T06:54:00.833Z,99753.97
2022-11-23T06:56:27.763Z,99752.97
2022-11-23T06:58:54.455Z,99772.28
2022-11-23T07:01:23.248Z,99766.50
2022-11-23T07:03:51.558Z,99764.66
2022-11-23T07:06:17.979Z,99772.66
2022-11-23T07:08:45.777Z,99773.81
2022-11-23T07:11:12.759Z,99782.88
2022-11-23T07:13:39.500Z,99779.09
2022-11-23T07:16:06.531Z,99787.47
2022-11-23T07:18:33.717Z,99784.38
2022-11-23T07:21:00.491Z,99791.63
2022-11-23T07:23:26.859Z,99789.63
2022-11-23T07:25:53.231Z,99786.69
2022-11-23T07:28:21.343Z,99775.78
2022-11-23T07:30:50.421Z,99799.88
2022-11-23T07:33:16.845Z,99807.97
2022-11-23T07:35:43.632Z,99799.19
2022-11-23T07:38:09.934Z,99805.75
2022-11-23T07:40:38.352Z,99808.28
2022-11-23T07:43:06.242Z,99814.84
2022-11-23T07:45:33.569Z,99801.13
2022-11-23T07:48:06.432Z,99791.72
2022-11-23T07:50:33.638Z,99826.53
2022-11-23T07:53:02.828Z,99820.53
2022-11-23T07:55:29.738Z,99835.41
2022-11-23T07:57:56.845Z,99826.38
2022-11-23T08:00:24.734Z,99806.84
2022-11-23T08:03:25.611Z,99823.78
2022-11-23T08:05:38.127Z,99827.47
2022-11-23T08:08:04.728Z,99848.25
2022-11-23T08:10:33.019Z,99840.53
2022-11-23T08:13:06.079Z,99841.03
2022-11-23T08:15:33.944Z,99830.47
2022-11-23T08:18:02.634Z,99836.91
2022-11-23T08:20:30.298Z,99850.38
2022-11-23T08:22:57.807Z,99830.72
2022-11-23T08:25:26.152Z,99859.78
2022-11-23T08:27:57.386Z,99844.47
2022-11-23T08:30:25.920Z,99837.84
2022-11-23T08:32:52.612Z,99844.31
2022-11-23T08:35:19.023Z,99837.81
2022-11-23T08:37:45.373Z,99838.44
2022-11-23T08:40:12.543Z,99846.38
2022-11-23T08:42:38.919Z,99848.06
2022-11-23T08:45:06.006Z,99847.59
2022-11-23T08:47:33.633Z,99831.34
2022-11-23T08:50:00.107Z,99843.66
2022-11-23T08:52:27.214Z,99838.88
2022-11-23T08:54:53.514Z,99835.53
2022-11-23T08:57:19.840Z,99827.19
2022-11-23T08:59:46.227Z,99838.59
2022-11-23T09:02:13.952Z,99837.59
2022-11-23T09:04:41.201Z,99849.06
2022-11-23T09:07:08.264Z,99842.66
2022-11-23T09:09:34.724Z,99844.06
2022-11-23T09:12:01.140Z,99838.34
2022-11-23T09:14:27.640Z,99838.22
2022-11-23T09:16:54.711Z,99832.22
2022-11-23T09:19:21.124Z,99829.03
2022-11-23T09:21:47.480Z,99843.22
2022-11-23T09:24:14.260Z,99827.22
2022-11-23T09:26:41.121Z,99826.72
2022-11-23T09:29:08.479Z,99816.91
2022-11-23T09:31:38.589Z,99823.97
2022-11-23T09:34:05.473Z,99820.59
2022-11-23T09:36:31.939Z,99820.81
2022-11-23T09:38:58.349Z,99825.34
2022-11-23T09:41:53.601Z,99815.03
2022-11-23T09:44:47.346Z,99827.72
2022-11-23T09:47:20.649Z,99805.00
2022-11-23T09:50:07.789Z,99798.31
2022-11-23T09:52:37.135Z,99812.66
2022-11-23T09:55:12.953Z,99804.00
2022-11-23T09:57:42.068Z,99804.63
2022-11-23T10:00:19.072Z,99800.25
2022-11-23T10:02:46.040Z,99780.97
2022-11-23T10:05:22.668Z,99774.97
2022-11-23T10:08:01.226Z,99779.38
2022-11-23T10:10:53.042Z,99762.44
2022-11-23T10:13:25.505Z,99757.50
2022-11-23T10:16:16.221Z,99748.94
2022-11-23T10:18:58.770Z,99744.88
2022-11-23T10:21:43.958Z,99761.38
2022-11-23T10:24:18.236Z,99759.91
2022-11-23T10:26:46.545Z,99753.91
2022-11-23T10:29:19.997Z,99744.41
2022-11-23T10:31:52.600Z,99763.06
2022-11-23T10:35:07.251Z,99761.06
2022-11-23T10:37:33.738Z,99770.69
2022-11-23T10:40:00.173Z,99779.81
2022-11-23T10:42:44.976Z,99773.50
2022-11-23T10:45:28.671Z,99769.25
2022-11-23T10:47:57.722Z,99757.84
2022-11-23T10:50:32.948Z,99767.13
2022-11-23T10:53:01.799Z,99770.72
2022-11-23T10:55:31.667Z,99762.78
2022-11-23T10:57:58.795Z,99767.53
2022-11-23T11:00:30.805Z,99754.69
2022-11-23T11:02:59.172Z,99752.97
2022-11-23T11:08:21.759Z,99757.16
2022-11-23T11:10:48.925Z,99757.84
2022-11-23T11:13:50.736Z,99765.41
2022-11-23T11:16:50.442Z,99764.53
2022-11-23T11:19:28.304Z,99768.25
2022-11-23T11:21:55.350Z,99763.81
2022-11-23T11:24:31.498Z,99762.34
2022-11-23T11:27:01.290Z,99759.44
2022-11-23T11:29:39.425Z,99768.69
2022-11-23T11:32:12.152Z,99758.22
2022-11-23T11:34:53.444Z,99759.09
2022-11-23T11:37:37.426Z,99752.31
2022-11-23T11:40:23.588Z,99752.94
2022-11-23T11:43:05.784Z,99740.13
2022-11-23T11:45:37.818Z,99736.63
2022-11-23T11:48:15.452Z,99739.63
2022-11-23T11:50:50.250Z,99721.75
2022-11-23T11:53:47.102Z,99710.41
2022-11-23T11:56:36.507Z,99711.53
2022-11-23T11:59:16.515Z,99713.44
2022-11-23T12:01:57.483Z,99706.50
2022-11-23T12:04:35.220Z,99697.78
2022-11-23T12:07:23.156Z,99696.63
2022-11-23T12:09:55.676Z,99691.41
2022-11-23T12:12:28.230Z,99692.03
2022-11-23T12:14:56.982Z,99682.97
2022-11-23T12:17:40.323Z,99687.41
2022-11-23T12:20:28.614Z,99683.50
2022-11-23T12:22:57.995Z,99672.66
2022-11-23T12:25:33.277Z,99678.84
2022-11-23T12:28:37.199Z,99662.19
2022-11-23T12:31:24.005Z,99665.13
2022-11-23T12:34:14.201Z,99645.50
2022-11-23T12:36:59.510Z,99670.03
2022-11-23T12:40:03.524Z,99673.44
2022-11-23T12:42:42.457Z,99672.00
2022-11-23T12:45:27.707Z,99670.66
2022-11-23T12:48:25.449Z,99662.53
2022-11-23T12:51:10.864Z,99656.66
2022-11-23T12:53:58.697Z,99659.84
2022-11-23T12:56:43.916Z,99652.50
2022-11-23T12:59:11.436Z,99654.81
2022-11-23T13:01:44.804Z,99650.56
2022-11-23T13:04:41.669Z,99663.50
2022-11-23T13:07:43.291Z,99646.47
2022-11-23T13:10:22.962Z,99651.19
2022-11-23T13:12:58.131Z,99649.53
2022-11-23T13:15:43.563Z,99635.19
2022-11-23T13:18:19.206Z,99636.03
2022-11-23T13:21:02.684Z,99646.38
2022-11-23T13:23:34.944Z,99628.16
2022-11-23T13:26:27.907Z,99637.94
2022-11-23T13:28:56.242Z,99631.19
2022-11-23T13:31:26.605Z,99638.44
2022-11-23T13:34:00.987Z,99631.00
2022-11-23T13:36:56.338Z,99658.72
2022-11-23T13:39:54.880Z,99661.41
2022-11-23T13:42:21.813Z,99663.63
2022-11-23T13:44:48.343Z,99687.63
2022-11-23T13:47:14.745Z,99678.97
2022-11-23T13:49:42.911Z,99689.28
2022-11-23T13:52:21.400Z,99694.00
2022-11-23T13:55:19.948Z,99698.38
2022-11-23T13:58:21.697Z,99703.19
2022-11-23T14:00:49.728Z,99716.78
2022-11-23T14:03:51.496Z,99712.13
2022-11-23T14:06:26.751Z,99709.53
2022-11-23T14:09:11.915Z,99713.56
2022-11-23T14:12:16.989Z,99709.44
2022-11-23T14:15:11.391Z,99703.50
2022-11-23T14:17:53.136Z,99700.44
2022-11-23T14:20:37.524Z,99708.69
2022-11-23T14:23:33.061Z,99707.31
2022-11-23T14:26:38.566Z,99722.66
2022-11-23T14:29:32.882Z,99706.13
2022-11-23T14:32:16.297Z,99728.84
2022-11-23T14:35:10.755Z,99728.34
2022-11-23T14:38:14.975Z,99738.47
2022-11-23T14:41:12.988Z,99754.13
2022-11-23T14:43:42.445Z,99753.47
2022-11-23T14:46:16.181Z,99747.50
2022-11-23T14:48:42.639Z,99752.34
2022-11-23T14:51:17.203Z,99751.66
2022-11-23T14:53:49.102Z,99755.22
2022-11-23T14:56:39.326Z,99754.66
2022-11-23T14:59:10.070Z,99756.63
2022-11-23T15:01:37.458Z,99747.16
2022-11-23T15:04:23.141Z,99755.53
2022-11-23T15:06:53.433Z,99756.47
2022-11-23T15:09:49.503Z,99759.50
2022-11-23T15:12:26.906Z,99754.78
2022-11-23T15:14:55.517Z,99752.25
2022-11-23T15:17:24.583Z,99755.88
2022-11-23T15:20:03.464Z,99761.81
2022-11-23T15:22:31.825Z,99761.97
2022-11-23T15:25:06.467Z,99764.66
2022-11-23T15:27:32.852Z,99769.03
2022-11-23T15:30:00.483Z,99770.22
2022-11-23T15:32:34.228Z,99772.53
2022-11-23T15:35:10.346Z,99770.34
2022-11-23T15:37:43.766Z,99773.03
2022-11-23T15:40:18.590Z,99769.81
2022-11-23T15:42:48.276Z,99774.75
2022-11-23T15:45:52.856Z,99777.59
2022-11-23T15:48:22.813Z,99779.28
2022-11-23T15:50:53.355Z,99767.63
2022-11-23T15:53:24.783Z,99771.50
2022-11-23T15:55:52.400Z,99776.91
2022-11-23T15:58:20.254Z,99783.81
2022-11-23T16:00:50.028Z,99781.97
2022-11-23T16:03:48.382Z,99790.06
2022-11-23T16:06:17.854Z,99803.22
2022-11-23T16:08:44.462Z,99793.59
2022-11-23T16:11:20.956Z,99784.81
2022-11-23T16:13:47.604Z,99788.22
2022-11-23T16:16:20.434Z,99792.75
2022-11-23T16:18:49.793Z,99806.38
2022-11-23T16:21:19.029Z,99796.50
2022-11-23T16:23:50.809Z,99797.91
2022-11-23T16:26:17.985Z,99814.16
2022-11-23T16:28:53.097Z,99817.16
2022-11-23T16:31:41.481Z,99826.16
2022-11-23T16:34:17.095Z,99827.84
2022-11-23T16:36:43.959Z,99834.09
2022-11-23T16:39:10.634Z,99839.56
2022-11-23T16:41:37.407Z,99834.63
2022-11-23T16:44:03.926Z,99827.84
2022-11-23T16:46:32.185Z,99820.22
2022-11-23T16:48:58.785Z,99842.72
2022-11-23T16:51:25.423Z,99853.22
2022-11-23T16:54:13.167Z,99854.06
2022-11-23T16:56:38.242Z,99858.44
2022-11-23T16:59:04.684Z,99853.91
2022-11-23T17:01:32.330Z,99854.78
2022-11-23T17:03:58.686Z,99849.53
2022-11-23T17:06:25.178Z,99848.53
2022-11-23T17:09:00.470Z,99859.69
2022-11-23T17:11:30.447Z,99851.44
2022-11-23T17:13:56.971Z,99859.00
2022-11-23T17:16:25.361Z,99857.16
2022-11-23T17:18:51.800Z,99874.34
2022-11-23T17:21:18.224Z,99855.25
2022-11-23T17:23:44.559Z,99878.78
2022-11-23T17:26:30.321Z,99888.97
2022-11-23T17:28:59.471Z,99893.13
2022-11-23T17:31:25.927Z,99884.34
2022-11-23T17:33:52.290Z,99874.94
2022-11-23T17:36:18.813Z,99899.28
2022-11-23T17:38:46.610Z,99893.66
2022-11-23T17:41:14.957Z,99903.84
2022-11-23T17:43:41.817Z,99902.28
2022-11-23T17:46:23.040Z,99912.00
2022-11-23T17:48:54.394Z,99919.31
2022-11-23T17:51:20.947Z,99911.84
2022-11-23T17:53:47.583Z,99928.72
2022-11-23T17:56:21.125Z,99928.00
2022-11-23T17:58:48.509Z,99933.94
2022-11-23T18:01:16.995Z,99929.72
2022-11-23T18:03:44.998Z,99937.34
2022-11-23T18:06:16.675Z,99935.28
2022-11-23T18:08:44.080Z,99940.50
2022-11-23T18:11:11.052Z,99937.03
2022-11-23T18:13:38.477Z,99961.91
2022-11-23T18:16:06.241Z,99949.13
2022-11-23T18:18:34.729Z,99926.13
2022-11-23T18:21:07.206Z,99951.19
2022-11-23T18:23:33.880Z,99960.03
2022-11-23T18:26:05.991Z,99953.38
2022-11-23T18:28:32.569Z,99968.44
2022-11-23T18:31:02.167Z,99972.09
2022-11-23T18:33:28.591Z,99959.72
2022-11-23T18:35:56.510Z,99968.91
2022-11-23T18:38:26.010Z,99978.50
2022-11-23T18:40:52.479Z,99984.38
2022-11-23T18:43:18.875Z,99998.69
2022-11-23T18:45:45.435Z,99991.91
2022-11-23T18:48:11.870Z,99988.75
2022-11-23T18:50:38.230Z,99988.81
2022-11-23T18:53:04.682Z,99986.84
2022-11-23T18:55:31.109Z,99999.59
2022-11-23T18:57:57.476Z,99997.34
2022-11-23T19:00:24.658Z,100014.78
2022-11-23T19:02:55.392Z,99998.94
2022-11-23T19:05:22.726Z,100007.00
2022-11-23T19:07:49.635Z,100016.53
2022-11-23T19:10:16.368Z,100014.22
2022-11-23T19:12:42.700Z,100016.06
2022-11-23T19:15:10.488Z,100016.53
2022-11-23T19:17:37.420Z,100023.47
2022-11-23T19:20:05.277Z,100032.56
2022-11-23T19:22:35.629Z,100038.09
2022-11-23T19:25:02.269Z,100054.53
2022-11-23T19:27:28.776Z,100056.66
2022-11-23T19:29:55.093Z,100061.19
2022-11-23T19:32:21.443Z,100055.84
2022-11-23T19:34:49.119Z,100041.81
2022-11-23T19:37:15.543Z,100056.50
2022-11-23T19:39:42.053Z,100066.88
2022-11-23T19:42:08.569Z,100071.69
2022-11-23T19:44:34.959Z,100069.03
2022-11-23T19:47:02.677Z,100076.41
2022-11-23T19:49:30.470Z,100085.03
2022-11-23T19:51:57.299Z,100077.97
2022-11-23T19:54:24.007Z,100075.97
2022-11-23T19:56:52.438Z,100077.53
2022-11-23T19:59:18.844Z,100086.47
2022-11-23T20:01:45.553Z,100084.06
2022-11-23T20:04:12.263Z,100089.59
2022-11-23T20:06:40.682Z,100093.84
2022-11-23T20:09:12.885Z,100096.78
2022-11-23T20:11:40.287Z,100099.50
2022-11-23T20:14:07.147Z,100106.16
2022-11-23T20:16:33.625Z,100081.22
2022-11-23T20:19:02.663Z,100087.91
2022-11-23T20:21:30.829Z,100100.19
2022-11-23T20:24:04.677Z,100100.78
2022-11-23T20:26:33.378Z,100101.75
2022-11-23T20:29:00.289Z,100091.44
2022-11-23T20:31:29.637Z,100091.84
2022-11-23T20:33:57.204Z,100107.56
2022-11-23T20:36:29.372Z,100113.78
2022-11-23T20:38:55.960Z,100104.16
2022-11-23T20:41:24.856Z,100118.91
2022-11-23T20:43:53.861Z,100125.72
2022-11-23T20:46:38.601Z,100116.34
2022-11-23T20:49:06.674Z,100124.72
2022-11-23T20:51:32.983Z,100126.81
2022-11-23T20:53:59.359Z,100131.78
2022-11-23T20:56:27.522Z,100146.66
2022-11-23T20:58:55.821Z,100144.25
2022-11-23T21:01:22.375Z,100142.81
2022-11-23T21:03:51.144Z,100145.94
2022-11-23T21:06:18.476Z,100154.06
2022-11-23T21:08:46.363Z,100159.44
2022-11-23T21:11:16.983Z,100159.28
2022-11-23T21:13:49.662Z,100170.19
2022-11-23T21:16:18.470Z,100154.75
2022-11-23T21:18:44.950Z,100156.47
2022-11-23T21:21:11.510Z,100167.91
2022-11-23T21:23:41.049Z,100167.50
2022-11-23T21:26:07.365Z,100172.72
2022-11-23T21:28:33.852Z,100157.28
2022-11-23T21:31:07.890Z,100171.91
2022-11-23T21:33:36.459Z,100174.03
2022-11-23T21:36:07.041Z,100181.69
2022-11-23T21:38:34.674Z,100179.41
2022-11-23T21:41:02.829Z,100172.06
2022-11-23T21:43:29.804Z,100191.16
2022-11-23T21:46:00.737Z,100191.75
2022-11-23T21:48:27.627Z,100190.63
2022-11-23T21:51:20.526Z,100192.72
2022-11-23T21:53:46.852Z,100207.63
2022-11-23T21:56:18.203Z,100202.94
2022-11-23T21:58:45.152Z,100209.31
2022-11-23T22:01:15.841Z,100215.69
2022-11-23T22:03:43.568Z,100217.38
2022-11-23T22:06:11.919Z,100231.72
2022-11-23T22:08:45.834Z,100229.31
2022-11-23T22:11:17.528Z,100230.41
2022-11-23T22:13:44.683Z,100235.81
2022-11-23T22:16:12.227Z,100237.25
2022-11-23T22:18:38.696Z,100240.09
2022-11-23T22:21:06.123Z,100221.22
2022-11-23T22:23:32.475Z,100237.25
2022-11-23T22:26:02.990Z,100239.66
2022-11-23T22:28:33.789Z,100244.47
2022-11-23T22:31:00.694Z,100253.84
2022-11-23T22:33:27.148Z,100241.50
2022-11-23T22:35:53.506Z,100255.25
2022-11-23T22:38:19.844Z,100254.66
2022-11-23T22:40:47.074Z,100270.97
2022-11-23T22:43:13.487Z,100275.09
2022-11-23T22:45:40.045Z,100265.19
2022-11-23T22:48:06.454Z,100272.09
2022-11-23T22:50:32.845Z,100266.16
2022-11-23T22:53:01.509Z,100286.59
2022-11-23T22:55:27.906Z,100280.34
2022-11-23T22:57:54.246Z,100283.75
2022-11-23T23:00:20.918Z,100272.41
2022-11-23T23:02:47.504Z,100291.25
2022-11-23T23:05:14.135Z,100297.22
2022-11-23T23:07:40.506Z,100295.53
2022-11-23T23:10:07.296Z,100300.78
2022-11-23T23:12:33.620Z,100300.19
2022-11-23T23:14:59.947Z,100302.75
2022-11-23T23:17:26.299Z,100296.22
2022-11-23T23:19:52.634Z,100299.34
2022-11-23T23:22:19.221Z,100301.19
2022-11-23T23:24:45.555Z,100313.13
2022-11-23T23:27:12.139Z,100315.22
2022-11-23T23:29:38.479Z,100324.31
2022-11-23T23:32:05.527Z,100326.00
2022-11-23T23:34:32.488Z,100328.84
2022-11-23T23:36:59.329Z,100316.22
2022-11-23T23:39:26.160Z,100331.69
2022-11-23T23:41:52.524Z,100328.56
2022-11-23T23:44:18.869Z,100338.22
2022-11-23T23:46:45.197Z,100329.69
2022-11-23T23:49:11.556Z,100338.06
2022-11-23T23:51:37.991Z,100328.59
2022-11-23T23:54:04.393Z,100325.31
2022-11-23T23:56:31.001Z,100321.03
2022-11-23T23:58:58.339Z,100320.06
